sensor_id;sensor_type;location;lat;lon;timestamp;P1;durP1;ratioP1;P2;durP2;ratioP2
41255;SDS011;26989;45.524;10.938;2024-01-30T00:02:15;11.07;;;6.13;;
41255;SDS011;26989;45.524;10.938;2024-01-30T00:04:43;9.77;;;4.80;;
41255;SDS011;26989;45.524;10.938;2024-01-30T00:07:10;8.73;;;5.15;;
41255;SDS011;26989;45.524;10.938;2024-01-30T00:09:37;13.45;;;5.25;;
41255;SDS011;26989;45.524;10.938;2024-01-30T00:12:06;10.88;;;4.78;;
41255;SDS011;26989;45.524;10.938;2024-01-30T00:14:33;9.85;;;4.50;;
41255;SDS011;26989;45.524;10.938;2024-01-30T00:17:00;6.75;;;3.60;;
41255;SDS011;26989;45.524;10.938;2024-01-30T00:19:27;10.60;;;4.88;;
41255;SDS011;26989;45.524;10.938;2024-01-30T00:21:54;7.03;;;3.65;;
41255;SDS011;26989;45.524;10.938;2024-01-30T00:24:21;12.18;;;4.30;;
41255;SDS011;26989;45.524;10.938;2024-01-30T00:26:48;9.93;;;4.78;;
41255;SDS011;26989;45.524;10.938;2024-01-30T00:29:14;5.53;;;3.70;;
41255;SDS011;26989;45.524;10.938;2024-01-30T00:31:45;9.93;;;4.28;;
41255;SDS011;26989;45.524;10.938;2024-01-30T00:34:12;9.73;;;4.25;;
41255;SDS011;26989;45.524;10.938;2024-01-30T00:36:40;8.38;;;4.40;;
41255;SDS011;26989;45.524;10.938;2024-01-30T00:39:06;8.50;;;4.72;;
41255;SDS011;26989;45.524;10.938;2024-01-30T00:41:35;7.18;;;3.92;;
41255;SDS011;26989;45.524;10.938;2024-01-30T00:44:02;7.78;;;4.88;;
41255;SDS011;26989;45.524;10.938;2024-01-30T00:46:29;11.18;;;4.70;;
41255;SDS011;26989;45.524;10.938;2024-01-30T00:48:56;10.43;;;4.50;;
41255;SDS011;26989;45.524;10.938;2024-01-30T00:51:23;11.02;;;4.45;;
41255;SDS011;26989;45.524;10.938;2024-01-30T00:53:50;11.70;;;4.35;;
41255;SDS011;26989;45.524;10.938;2024-01-30T00:56:16;10.35;;;4.88;;
41255;SDS011;26989;45.524;10.938;2024-01-30T00:58:44;11.35;;;4.97;;
41255;SDS011;26989;45.524;10.938;2024-01-30T01:01:11;9.95;;;4.45;;
41255;SDS011;26989;45.524;10.938;2024-01-30T01:03:38;9.20;;;4.82;;
41255;SDS011;26989;45.524;10.938;2024-01-30T01:06:07;9.52;;;4.85;;
41255;SDS011;26989;45.524;10.938;2024-01-30T01:08:34;9.00;;;4.80;;
41255;SDS011;26989;45.524;10.938;2024-01-30T01:11:01;10.00;;;5.00;;
41255;SDS011;26989;45.524;10.938;2024-01-30T01:13:27;10.50;;;4.63;;
41255;SDS011;26989;45.524;10.938;2024-01-30T01:15:54;10.82;;;5.07;;
41255;SDS011;26989;45.524;10.938;2024-01-30T01:18:21;8.88;;;4.70;;
41255;SDS011;26989;45.524;10.938;2024-01-30T01:20:48;11.13;;;5.20;;
41255;SDS011;26989;45.524;10.938;2024-01-30T01:23:15;15.45;;;5.97;;
41255;SDS011;26989;45.524;10.938;2024-01-30T01:25:42;13.98;;;6.00;;
41255;SDS011;26989;45.524;10.938;2024-01-30T01:28:09;14.25;;;7.05;;
41255;SDS011;26989;45.524;10.938;2024-01-30T01:30:36;15.85;;;7.25;;
41255;SDS011;26989;45.524;10.938;2024-01-30T01:33:03;15.63;;;7.82;;
41255;SDS011;26989;45.524;10.938;2024-01-30T01:35:30;12.27;;;6.60;;
41255;SDS011;26989;45.524;10.938;2024-01-30T01:37:57;17.85;;;7.70;;
41255;SDS011;26989;45.524;10.938;2024-01-30T01:40:25;15.82;;;6.80;;
41255;SDS011;26989;45.524;10.938;2024-01-30T01:42:54;14.50;;;7.22;;
41255;SDS011;26989;45.524;10.938;2024-01-30T01:45:22;13.23;;;6.07;;
41255;SDS011;26989;45.524;10.938;2024-01-30T01:47:51;13.35;;;6.30;;
41255;SDS011;26989;45.524;10.938;2024-01-30T01:50:20;9.60;;;5.53;;
41255;SDS011;26989;45.524;10.938;2024-01-30T01:52:48;11.82;;;6.22;;
41255;SDS011;26989;45.524;10.938;2024-01-30T01:55:16;14.50;;;7.15;;
41255;SDS011;26989;45.524;10.938;2024-01-30T01:57:45;15.85;;;7.45;;
41255;SDS011;26989;45.524;10.938;2024-01-30T02:00:12;14.35;;;6.45;;
41255;SDS011;26989;45.524;10.938;2024-01-30T02:02:40;13.30;;;6.47;;
41255;SDS011;26989;45.524;10.938;2024-01-30T02:05:09;15.65;;;6.32;;
41255;SDS011;26989;45.524;10.938;2024-01-30T02:07:37;11.43;;;5.97;;
41255;SDS011;26989;45.524;10.938;2024-01-30T02:10:05;11.85;;;6.13;;
41255;SDS011;26989;45.524;10.938;2024-01-30T02:12:33;11.55;;;5.90;;
41255;SDS011;26989;45.524;10.938;2024-01-30T02:15:00;13.18;;;5.50;;
41255;SDS011;26989;45.524;10.938;2024-01-30T02:17:27;12.23;;;5.40;;
41255;SDS011;26989;45.524;10.938;2024-01-30T02:19:54;9.77;;;5.15;;
41255;SDS011;26989;45.524;10.938;2024-01-30T02:22:22;9.05;;;4.65;;
41255;SDS011;26989;45.524;10.938;2024-01-30T02:24:50;7.80;;;3.83;;
41255;SDS011;26989;45.524;10.938;2024-01-30T02:27:16;13.00;;;5.13;;
41255;SDS011;26989;45.524;10.938;2024-01-30T02:29:43;9.32;;;5.15;;
41255;SDS011;26989;45.524;10.938;2024-01-30T02:32:10;7.93;;;4.13;;
41255;SDS011;26989;45.524;10.938;2024-01-30T02:34:37;11.95;;;5.00;;
41255;SDS011;26989;45.524;10.938;2024-01-30T02:37:04;8.85;;;4.32;;
41255;SDS011;26989;45.524;10.938;2024-01-30T02:39:31;13.15;;;4.97;;
41255;SDS011;26989;45.524;10.938;2024-01-30T02:41:58;12.25;;;4.55;;
41255;SDS011;26989;45.524;10.938;2024-01-30T02:44:25;9.40;;;4.30;;
41255;SDS011;26989;45.524;10.938;2024-01-30T02:46:52;13.07;;;5.53;;
41255;SDS011;26989;45.524;10.938;2024-01-30T02:49:20;12.10;;;5.68;;
41255;SDS011;26989;45.524;10.938;2024-01-30T02:51:48;11.45;;;4.70;;
41255;SDS011;26989;45.524;10.938;2024-01-30T02:54:15;14.27;;;6.40;;
41255;SDS011;26989;45.524;10.938;2024-01-30T02:56:42;9.90;;;4.60;;
41255;SDS011;26989;45.524;10.938;2024-01-30T02:59:09;11.55;;;4.55;;
41255;SDS011;26989;45.524;10.938;2024-01-30T03:01:45;10.80;;;4.40;;
41255;SDS011;26989;45.524;10.938;2024-01-30T03:04:13;10.43;;;5.32;;
41255;SDS011;26989;45.524;10.938;2024-01-30T03:06:44;8.80;;;4.32;;
41255;SDS011;26989;45.524;10.938;2024-01-30T03:09:15;7.88;;;3.97;;
41255;SDS011;26989;45.524;10.938;2024-01-30T03:11:45;7.55;;;3.65;;
41255;SDS011;26989;45.524;10.938;2024-01-30T03:14:12;8.18;;;4.20;;
41255;SDS011;26989;45.524;10.938;2024-01-30T03:16:39;9.23;;;4.43;;
41255;SDS011;26989;45.524;10.938;2024-01-30T03:19:06;7.82;;;4.00;;
41255;SDS011;26989;45.524;10.938;2024-01-30T03:21:35;9.68;;;3.67;;
41255;SDS011;26989;45.524;10.938;2024-01-30T03:24:02;15.20;;;4.85;;
41255;SDS011;26989;45.524;10.938;2024-01-30T03:26:29;10.43;;;4.70;;
41255;SDS011;26989;45.524;10.938;2024-01-30T03:28:56;9.25;;;4.15;;
41255;SDS011;26989;45.524;10.938;2024-01-30T03:31:23;12.48;;;4.80;;
41255;SDS011;26989;45.524;10.938;2024-01-30T03:33:50;8.27;;;3.90;;
41255;SDS011;26989;45.524;10.938;2024-01-30T03:36:17;9.82;;;4.88;;
41255;SDS011;26989;45.524;10.938;2024-01-30T03:38:44;11.50;;;4.60;;
41255;SDS011;26989;45.524;10.938;2024-01-30T03:41:11;10.55;;;4.72;;
41255;SDS011;26989;45.524;10.938;2024-01-30T03:43:38;9.95;;;4.70;;
41255;SDS011;26989;45.524;10.938;2024-01-30T03:46:05;8.73;;;4.75;;
41255;SDS011;26989;45.524;10.938;2024-01-30T03:48:32;10.02;;;4.20;;
41255;SDS011;26989;45.524;10.938;2024-01-30T03:50:59;12.55;;;4.68;;
41255;SDS011;26989;45.524;10.938;2024-01-30T03:53:26;10.02;;;4.28;;
41255;SDS011;26989;45.524;10.938;2024-01-30T03:55:53;7.95;;;4.18;;
41255;SDS011;26989;45.524;10.938;2024-01-30T03:58:20;7.40;;;3.78;;
41255;SDS011;26989;45.524;10.938;2024-01-30T04:00:47;8.18;;;3.33;;
41255;SDS011;26989;45.524;10.938;2024-01-30T04:03:14;9.55;;;4.00;;
41255;SDS011;26989;45.524;10.938;2024-01-30T04:05:42;9.25;;;4.03;;
41255;SDS011;26989;45.524;10.938;2024-01-30T04:08:09;8.05;;;4.05;;
41255;SDS011;26989;45.524;10.938;2024-01-30T04:10:36;10.25;;;4.13;;
41255;SDS011;26989;45.524;10.938;2024-01-30T04:13:03;9.48;;;4.03;;
41255;SDS011;26989;45.524;10.938;2024-01-30T04:15:30;9.07;;;3.50;;
41255;SDS011;26989;45.524;10.938;2024-01-30T04:17:57;10.43;;;4.53;;
41255;SDS011;26989;45.524;10.938;2024-01-30T04:20:26;11.52;;;4.53;;
41255;SDS011;26989;45.524;10.938;2024-01-30T04:22:53;10.50;;;3.85;;
41255;SDS011;26989;45.524;10.938;2024-01-30T04:25:20;6.45;;;3.88;;
41255;SDS011;26989;45.524;10.938;2024-01-30T04:27:47;10.77;;;4.55;;
41255;SDS011;26989;45.524;10.938;2024-01-30T04:30:14;8.82;;;4.22;;
41255;SDS011;26989;45.524;10.938;2024-01-30T04:32:41;9.65;;;4.25;;
41255;SDS011;26989;45.524;10.938;2024-01-30T04:35:09;9.30;;;3.97;;
41255;SDS011;26989;45.524;10.938;2024-01-30T04:37:37;8.27;;;4.45;;
41255;SDS011;26989;45.524;10.938;2024-01-30T04:40:05;10.88;;;4.63;;
41255;SDS011;26989;45.524;10.938;2024-01-30T04:42:32;8.90;;;4.13;;
41255;SDS011;26989;45.524;10.938;2024-01-30T04:44:59;8.75;;;4.05;;
41255;SDS011;26989;45.524;10.938;2024-01-30T04:47:26;8.00;;;4.05;;
41255;SDS011;26989;45.524;10.938;2024-01-30T04:49:53;6.97;;;3.28;;
41255;SDS011;26989;45.524;10.938;2024-01-30T04:52:20;5.75;;;3.00;;
41255;SDS011;26989;45.524;10.938;2024-01-30T04:54:47;8.52;;;4.22;;
41255;SDS011;26989;45.524;10.938;2024-01-30T04:57:14;9.35;;;4.38;;
41255;SDS011;26989;45.524;10.938;2024-01-30T04:59:41;9.63;;;4.18;;
41255;SDS011;26989;45.524;10.938;2024-01-30T05:02:07;16.25;;;4.32;;
41255;SDS011;26989;45.524;10.938;2024-01-30T05:04:35;11.98;;;4.60;;
41255;SDS011;26989;45.524;10.938;2024-01-30T05:07:02;7.72;;;3.70;;
41255;SDS011;26989;45.524;10.938;2024-01-30T05:09:29;5.85;;;3.20;;
41255;SDS011;26989;45.524;10.938;2024-01-30T05:11:56;10.55;;;4.82;;
41255;SDS011;26989;45.524;10.938;2024-01-30T05:14:24;12.48;;;4.10;;
41255;SDS011;26989;45.524;10.938;2024-01-30T05:16:51;7.93;;;4.18;;
41255;SDS011;26989;45.524;10.938;2024-01-30T05:19:18;8.07;;;3.70;;
41255;SDS011;26989;45.524;10.938;2024-01-30T05:21:45;10.45;;;3.53;;
41255;SDS011;26989;45.524;10.938;2024-01-30T05:24:12;9.07;;;3.80;;
41255;SDS011;26989;45.524;10.938;2024-01-30T05:26:39;8.18;;;4.03;;
41255;SDS011;26989;45.524;10.938;2024-01-30T05:29:06;12.15;;;6.47;;
41255;SDS011;26989;45.524;10.938;2024-01-30T05:31:34;12.10;;;6.28;;
41255;SDS011;26989;45.524;10.938;2024-01-30T05:34:01;10.93;;;4.65;;
41255;SDS011;26989;45.524;10.938;2024-01-30T05:36:28;6.65;;;3.30;;
41255;SDS011;26989;45.524;10.938;2024-01-30T05:38:56;8.75;;;3.97;;
41255;SDS011;26989;45.524;10.938;2024-01-30T05:41:23;11.50;;;4.57;;
41255;SDS011;26989;45.524;10.938;2024-01-30T05:43:50;10.90;;;3.78;;
41255;SDS011;26989;45.524;10.938;2024-01-30T05:46:20;11.30;;;4.38;;
41255;SDS011;26989;45.524;10.938;2024-01-30T05:48:51;9.13;;;3.80;;
41255;SDS011;26989;45.524;10.938;2024-01-30T05:51:17;10.50;;;4.57;;
41255;SDS011;26989;45.524;10.938;2024-01-30T05:53:44;9.63;;;4.13;;
41255;SDS011;26989;45.524;10.938;2024-01-30T05:56:11;13.02;;;5.00;;
41255;SDS011;26989;45.524;10.938;2024-01-30T05:58:38;15.05;;;5.07;;
41255;SDS011;26989;45.524;10.938;2024-01-30T06:01:08;10.80;;;5.00;;
41255;SDS011;26989;45.524;10.938;2024-01-30T06:03:35;12.02;;;4.90;;
41255;SDS011;26989;45.524;10.938;2024-01-30T06:06:02;11.57;;;5.53;;
41255;SDS011;26989;45.524;10.938;2024-01-30T06:08:29;14.00;;;4.75;;
41255;SDS011;26989;45.524;10.938;2024-01-30T06:10:56;13.20;;;4.93;;
41255;SDS011;26989;45.524;10.938;2024-01-30T06:13:23;13.15;;;4.95;;
41255;SDS011;26989;45.524;10.938;2024-01-30T06:15:50;11.23;;;5.05;;
41255;SDS011;26989;45.524;10.938;2024-01-30T06:18:17;11.63;;;5.53;;
41255;SDS011;26989;45.524;10.938;2024-01-30T06:20:44;11.82;;;5.85;;
41255;SDS011;26989;45.524;10.938;2024-01-30T06:23:11;19.65;;;6.57;;
41255;SDS011;26989;45.524;10.938;2024-01-30T06:25:39;27.48;;;11.20;;
41255;SDS011;26989;45.524;10.938;2024-01-30T06:28:06;22.95;;;9.70;;
41255;SDS011;26989;45.524;10.938;2024-01-30T06:30:32;17.08;;;7.75;;
41255;SDS011;26989;45.524;10.938;2024-01-30T06:32:59;15.15;;;6.95;;
41255;SDS011;26989;45.524;10.938;2024-01-30T06:35:26;14.73;;;6.53;;
41255;SDS011;26989;45.524;10.938;2024-01-30T06:37:55;11.50;;;5.47;;
41255;SDS011;26989;45.524;10.938;2024-01-30T06:40:22;15.57;;;7.28;;
41255;SDS011;26989;45.524;10.938;2024-01-30T06:42:49;19.33;;;6.75;;
41255;SDS011;26989;45.524;10.938;2024-01-30T06:45:16;14.43;;;6.88;;
41255;SDS011;26989;45.524;10.938;2024-01-30T06:47:43;22.23;;;7.63;;
41255;SDS011;26989;45.524;10.938;2024-01-30T06:50:10;17.95;;;8.93;;
41255;SDS011;26989;45.524;10.938;2024-01-30T06:52:38;15.63;;;7.68;;
41255;SDS011;26989;45.524;10.938;2024-01-30T06:55:05;14.70;;;7.72;;
41255;SDS011;26989;45.524;10.938;2024-01-30T06:57:32;19.15;;;7.93;;
41255;SDS011;26989;45.524;10.938;2024-01-30T06:59:59;18.35;;;7.95;;
41255;SDS011;26989;45.524;10.938;2024-01-30T07:02:26;24.75;;;7.82;;
41255;SDS011;26989;45.524;10.938;2024-01-30T07:04:53;16.85;;;7.75;;
41255;SDS011;26989;45.524;10.938;2024-01-30T07:07:20;18.75;;;9.45;;
41255;SDS011;26989;45.524;10.938;2024-01-30T07:09:47;26.00;;;11.10;;
41255;SDS011;26989;45.524;10.938;2024-01-30T07:12:16;23.95;;;10.13;;
41255;SDS011;26989;45.524;10.938;2024-01-30T07:14:43;22.50;;;10.55;;
41255;SDS011;26989;45.524;10.938;2024-01-30T07:17:10;18.52;;;8.68;;
41255;SDS011;26989;45.524;10.938;2024-01-30T07:19:36;18.25;;;9.93;;
41255;SDS011;26989;45.524;10.938;2024-01-30T07:22:04;29.75;;;9.75;;
41255;SDS011;26989;45.524;10.938;2024-01-30T07:24:31;17.20;;;9.18;;
41255;SDS011;26989;45.524;10.938;2024-01-30T07:26:57;27.05;;;10.43;;
41255;SDS011;26989;45.524;10.938;2024-01-30T07:29:24;22.23;;;8.85;;
41255;SDS011;26989;45.524;10.938;2024-01-30T07:31:51;22.88;;;10.15;;
41255;SDS011;26989;45.524;10.938;2024-01-30T07:34:18;23.67;;;9.70;;
41255;SDS011;26989;45.524;10.938;2024-01-30T07:36:45;20.98;;;9.48;;
41255;SDS011;26989;45.524;10.938;2024-01-30T07:39:13;38.42;;;13.93;;
41255;SDS011;26989;45.524;10.938;2024-01-30T07:41:40;31.73;;;14.95;;
41255;SDS011;26989;45.524;10.938;2024-01-30T07:44:07;25.98;;;12.98;;
41255;SDS011;26989;45.524;10.938;2024-01-30T07:46:34;31.88;;;13.60;;
41255;SDS011;26989;45.524;10.938;2024-01-30T07:49:01;30.30;;;13.05;;
41255;SDS011;26989;45.524;10.938;2024-01-30T07:51:28;24.40;;;10.35;;
41255;SDS011;26989;45.524;10.938;2024-01-30T07:53:57;33.25;;;12.05;;
41255;SDS011;26989;45.524;10.938;2024-01-30T07:56:24;29.73;;;11.43;;
41255;SDS011;26989;45.524;10.938;2024-01-30T07:58:51;26.48;;;12.05;;
41255;SDS011;26989;45.524;10.938;2024-01-30T08:01:18;28.52;;;11.73;;
41255;SDS011;26989;45.524;10.938;2024-01-30T08:03:45;31.45;;;13.15;;
41255;SDS011;26989;45.524;10.938;2024-01-30T08:06:12;25.90;;;11.57;;
41255;SDS011;26989;45.524;10.938;2024-01-30T08:08:42;24.67;;;12.93;;
41255;SDS011;26989;45.524;10.938;2024-01-30T08:11:11;19.75;;;10.85;;
41255;SDS011;26989;45.524;10.938;2024-01-30T08:13:38;24.10;;;13.30;;
41255;SDS011;26989;45.524;10.938;2024-01-30T08:16:05;27.92;;;14.85;;
41255;SDS011;26989;45.524;10.938;2024-01-30T08:18:34;37.90;;;17.20;;
41255;SDS011;26989;45.524;10.938;2024-01-30T08:21:04;37.35;;;18.83;;
41255;SDS011;26989;45.524;10.938;2024-01-30T08:23:31;41.92;;;22.05;;
41255;SDS011;26989;45.524;10.938;2024-01-30T08:25:58;44.75;;;22.42;;
41255;SDS011;26989;45.524;10.938;2024-01-30T08:28:24;37.92;;;20.83;;
41255;SDS011;26989;45.524;10.938;2024-01-30T08:30:52;44.72;;;21.38;;
41255;SDS011;26989;45.524;10.938;2024-01-30T08:33:19;37.20;;;20.30;;
41255;SDS011;26989;45.524;10.938;2024-01-30T08:35:46;39.08;;;20.50;;
41255;SDS011;26989;45.524;10.938;2024-01-30T08:38:13;34.13;;;17.73;;
41255;SDS011;26989;45.524;10.938;2024-01-30T08:40:40;31.52;;;17.38;;
41255;SDS011;26989;45.524;10.938;2024-01-30T08:43:07;102.95;;;42.53;;
41255;SDS011;26989;45.524;10.938;2024-01-30T08:45:36;125.55;;;45.63;;
41255;SDS011;26989;45.524;10.938;2024-01-30T08:48:03;278.88;;;91.28;;
41255;SDS011;26989;45.524;10.938;2024-01-30T08:50:30;218.45;;;82.53;;
41255;SDS011;26989;45.524;10.938;2024-01-30T08:52:57;129.00;;;56.22;;
41255;SDS011;26989;45.524;10.938;2024-01-30T08:55:24;52.78;;;28.10;;
41255;SDS011;26989;45.524;10.938;2024-01-30T08:57:51;37.35;;;19.65;;
41255;SDS011;26989;45.524;10.938;2024-01-30T09:00:19;37.15;;;18.73;;
41255;SDS011;26989;45.524;10.938;2024-01-30T09:02:46;37.67;;;20.17;;
41255;SDS011;26989;45.524;10.938;2024-01-30T09:05:13;39.47;;;19.95;;
41255;SDS011;26989;45.524;10.938;2024-01-30T09:07:40;36.78;;;18.25;;
41255;SDS011;26989;45.524;10.938;2024-01-30T09:10:08;40.40;;;20.05;;
41255;SDS011;26989;45.524;10.938;2024-01-30T09:12:39;41.85;;;21.58;;
41255;SDS011;26989;45.524;10.938;2024-01-30T09:15:06;50.20;;;24.42;;
41255;SDS011;26989;45.524;10.938;2024-01-30T09:17:33;49.80;;;24.83;;
41255;SDS011;26989;45.524;10.938;2024-01-30T09:20:00;50.13;;;23.80;;
41255;SDS011;26989;45.524;10.938;2024-01-30T09:22:27;40.60;;;22.95;;
41255;SDS011;26989;45.524;10.938;2024-01-30T09:24:56;44.03;;;22.40;;
41255;SDS011;26989;45.524;10.938;2024-01-30T09:27:23;42.33;;;23.05;;
41255;SDS011;26989;45.524;10.938;2024-01-30T09:29:50;43.35;;;21.33;;
41255;SDS011;26989;45.524;10.938;2024-01-30T09:32:17;35.33;;;20.65;;
41255;SDS011;26989;45.524;10.938;2024-01-30T09:34:45;38.80;;;21.67;;
41255;SDS011;26989;45.524;10.938;2024-01-30T09:37:12;38.95;;;21.35;;
41255;SDS011;26989;45.524;10.938;2024-01-30T09:39:41;37.95;;;21.52;;
41255;SDS011;26989;45.524;10.938;2024-01-30T09:42:17;37.15;;;21.65;;
41255;SDS011;26989;45.524;10.938;2024-01-30T09:44:53;41.92;;;22.85;;
41255;SDS011;26989;45.524;10.938;2024-01-30T09:47:20;42.13;;;22.58;;
41255;SDS011;26989;45.524;10.938;2024-01-30T09:49:47;37.30;;;22.52;;
41255;SDS011;26989;45.524;10.938;2024-01-30T09:52:15;34.42;;;21.40;;
41255;SDS011;26989;45.524;10.938;2024-01-30T09:54:42;34.38;;;20.48;;
41255;SDS011;26989;45.524;10.938;2024-01-30T09:57:11;39.25;;;20.30;;
41255;SDS011;26989;45.524;10.938;2024-01-30T09:59:38;41.15;;;20.35;;
41255;SDS011;26989;45.524;10.938;2024-01-30T10:02:05;37.28;;;20.75;;
41255;SDS011;26989;45.524;10.938;2024-01-30T10:04:33;35.85;;;20.55;;
41255;SDS011;26989;45.524;10.938;2024-01-30T10:07:01;41.83;;;19.15;;
41255;SDS011;26989;45.524;10.938;2024-01-30T10:09:31;34.35;;;17.55;;
41255;SDS011;26989;45.524;10.938;2024-01-30T10:11:59;31.70;;;17.98;;
41255;SDS011;26989;45.524;10.938;2024-01-30T10:14:27;32.13;;;17.85;;
41255;SDS011;26989;45.524;10.938;2024-01-30T10:16:55;32.33;;;17.52;;
41255;SDS011;26989;45.524;10.938;2024-01-30T10:19:23;30.02;;;16.75;;
41255;SDS011;26989;45.524;10.938;2024-01-30T10:21:50;26.30;;;15.07;;
41255;SDS011;26989;45.524;10.938;2024-01-30T10:24:17;28.38;;;15.57;;
41255;SDS011;26989;45.524;10.938;2024-01-30T10:26:45;24.80;;;15.45;;
41255;SDS011;26989;45.524;10.938;2024-01-30T10:29:12;35.38;;;16.08;;
41255;SDS011;26989;45.524;10.938;2024-01-30T10:31:38;24.52;;;14.65;;
41255;SDS011;26989;45.524;10.938;2024-01-30T10:34:05;26.83;;;14.68;;
41255;SDS011;26989;45.524;10.938;2024-01-30T10:36:46;29.73;;;15.10;;
41255;SDS011;26989;45.524;10.938;2024-01-30T10:39:17;24.52;;;14.07;;
41255;SDS011;26989;45.524;10.938;2024-01-30T10:41:44;28.38;;;14.73;;
41255;SDS011;26989;45.524;10.938;2024-01-30T10:44:15;23.45;;;13.88;;
41255;SDS011;26989;45.524;10.938;2024-01-30T10:46:47;30.42;;;16.10;;
41255;SDS011;26989;45.524;10.938;2024-01-30T10:49:21;29.85;;;15.70;;
41255;SDS011;26989;45.524;10.938;2024-01-30T10:51:49;29.05;;;16.58;;
41255;SDS011;26989;45.524;10.938;2024-01-30T10:54:18;32.22;;;16.77;;
41255;SDS011;26989;45.524;10.938;2024-01-30T10:56:47;32.20;;;16.95;;
41255;SDS011;26989;45.524;10.938;2024-01-30T10:59:15;25.42;;;15.35;;
41255;SDS011;26989;45.524;10.938;2024-01-30T11:01:42;33.95;;;14.75;;
41255;SDS011;26989;45.524;10.938;2024-01-30T11:04:09;27.58;;;14.95;;
41255;SDS011;26989;45.524;10.938;2024-01-30T11:06:43;29.83;;;15.90;;
41255;SDS011;26989;45.524;10.938;2024-01-30T11:09:11;23.13;;;12.52;;
41255;SDS011;26989;45.524;10.938;2024-01-30T11:11:52;24.92;;;12.45;;
41255;SDS011;26989;45.524;10.938;2024-01-30T11:14:32;18.52;;;11.02;;
41255;SDS011;26989;45.524;10.938;2024-01-30T11:16:59;19.87;;;9.93;;
41255;SDS011;26989;45.524;10.938;2024-01-30T11:19:27;19.23;;;11.02;;
41255;SDS011;26989;45.524;10.938;2024-01-30T11:21:57;21.77;;;10.80;;
41255;SDS011;26989;45.524;10.938;2024-01-30T11:24:24;20.80;;;11.70;;
41255;SDS011;26989;45.524;10.938;2024-01-30T11:26:57;24.42;;;11.45;;
41255;SDS011;26989;45.524;10.938;2024-01-30T11:29:25;25.17;;;11.45;;
41255;SDS011;26989;45.524;10.938;2024-01-30T11:31:54;19.40;;;11.15;;
41255;SDS011;26989;45.524;10.938;2024-01-30T11:34:22;19.50;;;12.02;;
41255;SDS011;26989;45.524;10.938;2024-01-30T11:37:01;19.40;;;11.65;;
41255;SDS011;26989;45.524;10.938;2024-01-30T11:39:34;19.58;;;10.77;;
41255;SDS011;26989;45.524;10.938;2024-01-30T11:42:02;23.48;;;12.70;;
41255;SDS011;26989;45.524;10.938;2024-01-30T11:44:31;24.80;;;13.43;;
41255;SDS011;26989;45.524;10.938;2024-01-30T11:46:58;23.05;;;14.15;;
41255;SDS011;26989;45.524;10.938;2024-01-30T11:49:25;32.38;;;15.85;;
41255;SDS011;26989;45.524;10.938;2024-01-30T11:51:52;26.25;;;15.05;;
41255;SDS011;26989;45.524;10.938;2024-01-30T11:54:20;25.88;;;14.73;;
41255;SDS011;26989;45.524;10.938;2024-01-30T11:56:46;29.30;;;15.43;;
41255;SDS011;26989;45.524;10.938;2024-01-30T11:59:13;29.50;;;15.85;;
41255;SDS011;26989;45.524;10.938;2024-01-30T12:01:40;25.52;;;15.68;;
41255;SDS011;26989;45.524;10.938;2024-01-30T12:04:09;26.20;;;15.85;;
41255;SDS011;26989;45.524;10.938;2024-01-30T12:06:37;30.10;;;16.30;;
41255;SDS011;26989;45.524;10.938;2024-01-30T12:09:05;27.70;;;16.25;;
41255;SDS011;26989;45.524;10.938;2024-01-30T12:11:44;30.40;;;16.92;;
41255;SDS011;26989;45.524;10.938;2024-01-30T12:14:12;27.17;;;16.33;;
41255;SDS011;26989;45.524;10.938;2024-01-30T12:16:39;26.77;;;16.13;;
41255;SDS011;26989;45.524;10.938;2024-01-30T12:19:07;29.20;;;16.70;;
41255;SDS011;26989;45.524;10.938;2024-01-30T12:21:34;30.60;;;16.95;;
41255;SDS011;26989;45.524;10.938;2024-01-30T12:24:02;26.17;;;16.40;;
41255;SDS011;26989;45.524;10.938;2024-01-30T12:26:29;30.15;;;15.60;;
41255;SDS011;26989;45.524;10.938;2024-01-30T12:28:56;26.40;;;15.63;;
41255;SDS011;26989;45.524;10.938;2024-01-30T12:31:26;25.15;;;15.20;;
41255;SDS011;26989;45.524;10.938;2024-01-30T12:34:01;28.08;;;15.77;;
41255;SDS011;26989;45.524;10.938;2024-01-30T12:36:28;24.35;;;14.75;;
41255;SDS011;26989;45.524;10.938;2024-01-30T12:38:57;29.38;;;15.50;;
41255;SDS011;26989;45.524;10.938;2024-01-30T12:41:25;24.17;;;13.88;;
41255;SDS011;26989;45.524;10.938;2024-01-30T12:43:56;24.55;;;14.77;;
41255;SDS011;26989;45.524;10.938;2024-01-30T12:46:29;27.67;;;14.00;;
41255;SDS011;26989;45.524;10.938;2024-01-30T12:48:56;24.60;;;14.23;;
41255;SDS011;26989;45.524;10.938;2024-01-30T12:51:24;27.40;;;14.15;;
41255;SDS011;26989;45.524;10.938;2024-01-30T12:53:51;21.52;;;12.80;;
41255;SDS011;26989;45.524;10.938;2024-01-30T12:56:18;27.48;;;14.32;;
41255;SDS011;26989;45.524;10.938;2024-01-30T12:58:45;22.45;;;13.20;;
41255;SDS011;26989;45.524;10.938;2024-01-30T13:01:17;22.40;;;11.85;;
41255;SDS011;26989;45.524;10.938;2024-01-30T13:03:44;25.13;;;13.23;;
41255;SDS011;26989;45.524;10.938;2024-01-30T13:06:11;25.23;;;12.35;;
41255;SDS011;26989;45.524;10.938;2024-01-30T13:08:38;28.05;;;12.77;;
41255;SDS011;26989;45.524;10.938;2024-01-30T13:11:04;25.75;;;13.75;;
41255;SDS011;26989;45.524;10.938;2024-01-30T13:13:34;22.98;;;12.40;;
41255;SDS011;26989;45.524;10.938;2024-01-30T13:16:02;25.77;;;13.00;;
41255;SDS011;26989;45.524;10.938;2024-01-30T13:18:29;23.45;;;12.35;;
41255;SDS011;26989;45.524;10.938;2024-01-30T13:20:56;23.42;;;13.13;;
41255;SDS011;26989;45.524;10.938;2024-01-30T13:23:23;25.13;;;14.25;;
41255;SDS011;26989;45.524;10.938;2024-01-30T13:25:50;22.58;;;12.13;;
41255;SDS011;26989;45.524;10.938;2024-01-30T13:28:17;21.40;;;12.48;;
41255;SDS011;26989;45.524;10.938;2024-01-30T13:30:44;22.75;;;12.80;;
41255;SDS011;26989;45.524;10.938;2024-01-30T13:33:11;25.10;;;12.88;;
41255;SDS011;26989;45.524;10.938;2024-01-30T13:35:38;25.15;;;12.70;;
41255;SDS011;26989;45.524;10.938;2024-01-30T13:38:05;23.48;;;12.55;;
41255;SDS011;26989;45.524;10.938;2024-01-30T13:40:32;26.55;;;13.93;;
41255;SDS011;26989;45.524;10.938;2024-01-30T13:42:59;23.45;;;13.10;;
41255;SDS011;26989;45.524;10.938;2024-01-30T13:45:26;30.17;;;16.00;;
41255;SDS011;26989;45.524;10.938;2024-01-30T13:47:53;27.10;;;13.88;;
41255;SDS011;26989;45.524;10.938;2024-01-30T13:50:21;25.90;;;14.15;;
41255;SDS011;26989;45.524;10.938;2024-01-30T13:52:49;23.90;;;14.88;;
41255;SDS011;26989;45.524;10.938;2024-01-30T13:55:16;26.30;;;14.45;;
41255;SDS011;26989;45.524;10.938;2024-01-30T13:57:43;26.52;;;13.82;;
41255;SDS011;26989;45.524;10.938;2024-01-30T14:00:12;30.48;;;13.40;;
41255;SDS011;26989;45.524;10.938;2024-01-30T14:02:42;27.42;;;14.10;;
41255;SDS011;26989;45.524;10.938;2024-01-30T14:05:11;29.30;;;13.98;;
41255;SDS011;26989;45.524;10.938;2024-01-30T14:07:39;27.98;;;14.15;;
41255;SDS011;26989;45.524;10.938;2024-01-30T14:10:09;25.50;;;14.40;;
41255;SDS011;26989;45.524;10.938;2024-01-30T14:12:41;27.60;;;14.43;;
41255;SDS011;26989;45.524;10.938;2024-01-30T14:15:10;33.60;;;18.27;;
41255;SDS011;26989;45.524;10.938;2024-01-30T14:20:19;35.08;;;15.88;;
41255;SDS011;26989;45.524;10.938;2024-01-30T14:22:49;38.33;;;17.52;;
41255;SDS011;26989;45.524;10.938;2024-01-30T14:25:16;30.98;;;17.67;;